Time;durP1;ratioP1;P1;durP2;ratioP2;P2;SDS_P1;SDS_P2;PMS_P1;PMS_P2;Temp;Humidity;BMP_temperature;BMP_pressure;BME280_temperature;BME280_humidity;BME280_pressure;Samples;Min_cycle;Max_cycle;Signal;HPM_P1;HPM_P2
2023/04/29 00:01:04;;;;;;;13.60;12.30;;;;;;;6.20;73.19;92839.78;5110692;28;20223;-72
2023/04/29 00:03:31;;;;;;;13.30;12.27;;;;;;;6.35;72.49;92821.78;5096000;28;20250;-73
2023/04/29 00:05:57;;;;;;;13.17;12.13;;;;;;;6.21;73.21;92825.81;5108141;28;20190;-73
2023/04/29 00:08:23;;;;;;;14.63;13.33;;;;;;;6.07;72.74;92809.88;5107734;28;20176;-73
2023/04/29 00:10:49;;;;;;;18.80;11.70;;;;;;;6.21;72.89;92833.59;5095600;28;20189;-74
2023/04/29 00:13:14;;;;;;;12.47;11.57;;;;;;;6.09;72.45;92801.84;5122495;28;20191;-73
2023/04/29 00:15:40;;;;;;;11.50;10.40;;;;;;;6.22;73.00;92828.16;5106400;28;20184;-74
2023/04/29 00:18:05;;;;;;;12.47;11.37;;;;;;;6.18;73.11;92836.66;5111551;28;20181;-73
2023/04/29 00:20:31;;;;;;;11.97;10.93;;;;;;;5.89;74.07;92828.38;5112643;28;20180;-74
2023/04/29 00:22:57;;;;;;;11.63;10.93;;;;;;;5.83;74.34;92813.00;5105115;28;20232;-74
2023/04/29 00:25:22;;;;;;;11.63;10.87;;;;;;;5.98;74.33;92831.28;5095497;28;20177;-71
2023/04/29 00:27:48;;;;;;;13.07;12.13;;;;;;;6.10;73.86;92845.66;5090054;28;20271;-73
2023/04/29 00:30:13;;;;;;;11.93;10.93;;;;;;;5.85;75.44;92837.63;5089774;28;20219;-73
2023/04/29 00:32:38;;;;;;;14.40;12.47;;;;;;;5.88;76.30;92851.94;5108619;28;20228;-73
2023/04/29 00:35:04;;;;;;;11.70;10.90;;;;;;;5.86;75.45;92822.88;5114800;28;20184;-73
2023/04/29 00:37:30;;;;;;;14.63;13.47;;;;;;;6.10;74.96;92852.66;5109241;28;20309;-73
2023/04/29 00:39:55;;;;;;;13.80;12.80;;;;;;;6.07;75.23;92855.75;5109991;28;20168;-73
2023/04/29 00:42:21;;;;;;;15.50;14.20;;;;;;;5.79;75.87;92823.03;5122003;28;20306;-73
2023/04/29 00:44:46;;;;;;;16.60;15.10;;;;;;;5.63;76.61;92813.56;5129972;28;20190;-73
2023/04/29 00:47:12;;;;;;;14.83;13.57;;;;;;;5.76;75.93;92838.31;5115757;28;20227;-73
2023/04/29 00:49:40;;;;;;;13.73;12.53;;;;;;;5.58;75.66;92820.47;5092359;28;20185;-73
2023/04/29 00:52:09;;;;;;;14.00;12.90;;;;;;;5.65;75.75;92818.50;5097489;28;20231;-72
2023/04/29 00:54:36;;;;;;;15.20;12.33;;;;;;;5.82;74.73;92825.16;5100666;28;20192;-71
2023/04/29 00:57:03;;;;;;;13.53;12.50;;;;;;;5.52;75.04;92793.78;5110434;28;20223;-73
2023/04/29 00:59:31;;;;;;;13.97;11.67;;;;;;;5.78;74.48;92805.94;5129136;28;20197;-73
2023/04/29 01:02:01;;;;;;;11.80;11.00;;;;;;;5.82;75.01;92821.81;5123511;28;20223;-73
2023/04/29 01:04:26;;;;;;;11.67;10.97;;;;;;;5.65;75.33;92810.72;5119352;28;20308;-73
2023/04/29 01:07:01;;;;;;;12.07;10.93;;;;;;;5.70;74.73;92813.34;5116841;28;20227;-73
2023/04/29 01:09:36;;;;;;;13.73;10.73;;;;;;;5.74;74.65;92810.06;5114315;28;20202;-73
2023/04/29 01:12:21;;;;;;;12.33;11.23;;;;;;;5.62;74.71;92796.44;5131989;28;20245;-73
2023/04/29 01:15:17;;;;;;;11.33;10.53;;;;;;;5.43;75.42;92771.13;5128406;28;20193;-73
2023/04/29 01:17:59;;;;;;;12.10;11.37;;;;;;;5.55;74.32;92769.19;5091623;28;20295;-73
2023/04/29 01:20:25;;;;;;;13.30;11.33;;;;;;;5.65;74.99;92798.53;5100253;28;20184;-73
2023/04/29 01:22:50;;;;;;;12.70;11.17;;;;;;;5.61;74.72;92794.09;5122321;28;20216;-74
2023/04/29 01:25:16;;;;;;;12.30;11.57;;;;;;;5.47;74.62;92782.56;5113236;28;20180;-73
2023/04/29 01:28:03;;;;;;;11.97;11.00;;;;;;;5.53;74.92;92784.19;5127173;27;20223;-73
2023/04/29 01:30:40;;;;;;;11.13;10.43;;;;;;;5.62;74.74;92795.69;5125314;28;20199;-73
2023/04/29 01:33:39;;;;;;;11.50;10.80;;;;;;;5.60;74.08;92785.56;5101970;28;20223;-74
2023/04/29 01:36:43;;;;;;;10.80;10.17;;;;;;;5.62;75.31;92798.28;5108097;27;20918;-73
2023/04/29 01:39:19;;;;;;;10.40;9.73;;;;;;;5.34;75.40;92785.53;5120977;28;20195;-73
2023/04/29 01:41:59;;;;;;;11.33;10.47;;;;;;;5.30;76.08;92777.47;5132052;28;20284;-73
2023/04/29 01:44:28;;;;;;;11.23;10.33;;;;;;;5.05;74.72;92738.38;5121026;28;20179;-73
2023/04/29 01:46:54;;;;;;;10.70;10.20;;;;;;;5.08;75.98;92744.84;5131081;27;20234;-73
2023/04/29 01:49:27;;;;;;;10.83;10.23;;;;;;;5.51;76.42;92794.00;5132276;27;20184;-73
2023/04/29 01:51:53;;;;;;;10.93;10.33;;;;;;;5.07;76.64;92753.66;5124782;28;20224;-73
2023/04/29 01:54:19;;;;;;;11.27;10.57;;;;;;;5.14;77.33;92772.38;5112197;28;20204;-73
2023/04/29 01:56:45;;;;;;;10.90;10.20;;;;;;;5.18;76.94;92773.44;5116238;28;20239;-73
2023/04/29 01:59:10;;;;;;;10.73;10.07;;;;;;;4.98;77.32;92753.28;5101726;28;20180;-74
2023/04/29 02:01:36;;;;;;;10.70;9.97;;;;;;;5.06;77.31;92736.56;5102254;28;20232;-73
2023/04/29 02:04:02;;;;;;;10.63;10.13;;;;;;;5.31;76.49;92788.63;5121090;28;20792;-73
2023/04/29 02:06:27;;;;;;;11.37;10.67;;;;;;;5.16;77.40;92776.28;5124296;28;20222;-73
2023/04/29 02:08:53;;;;;;;12.10;11.40;;;;;;;5.16;78.67;92785.84;5112003;28;20188;-74
2023/04/29 02:11:18;;;;;;;10.63;10.03;;;;;;;5.12;77.49;92767.41;5127137;28;20227;-74
2023/04/29 02:13:44;;;;;;;10.93;10.33;;;;;;;5.10;77.84;92766.09;5121212;28;20184;-73
2023/04/29 02:16:10;;;;;;;10.80;10.20;;;;;;;5.18;77.78;92796.72;5114862;28;20219;-72
2023/04/29 02:18:36;;;;;;;11.50;10.73;;;;;;;4.79;79.52;92770.13;5130894;28;20179;-74
2023/04/29 02:21:01;;;;;;;10.40;9.77;;;;;;;5.08;78.10;92788.84;5127060;28;20231;-73
2023/04/29 02:23:28;;;;;;;11.30;10.50;;;;;;;4.99;79.03;92788.50;5118882;28;20188;-73
2023/04/29 02:25:53;;;;;;;11.87;11.07;;;;;;;4.93;78.42;92766.94;5112056;28;20217;-74
2023/04/29 02:28:19;;;;;;;11.43;10.67;;;;;;;4.92;79.50;92775.72;5102391;28;20185;-75
2023/04/29 02:30:44;;;;;;;11.77;10.87;;;;;;;4.85;80.69;92793.25;5105408;28;20169;-75
2023/04/29 02:33:10;;;;;;;16.77;11.60;;;;;;;4.51;81.43;92732.25;5109796;28;20670;-74
2023/04/29 02:35:36;;;;;;;13.03;11.63;;;;;;;4.75;81.93;92775.00;5103549;28;20209;-74
2023/04/29 02:38:01;;;;;;;11.50;10.43;;;;;;;4.82;81.75;92785.94;5119029;28;20211;-74
2023/04/29 02:40:27;;;;;;;12.70;11.63;;;;;;;4.87;81.94;92783.41;5120705;28;20172;-72
2023/04/29 02:42:52;;;;;;;12.13;11.07;;;;;;;4.84;82.58;92786.47;5111860;28;20319;-72
2023/04/29 02:45:17;;;;;;;12.43;11.60;;;;;;;4.51;82.31;92752.16;5113655;28;20254;-72
2023/04/29 02:47:43;;;;;;;12.53;11.50;;;;;;;4.43;83.38;92755.94;5112105;28;20220;-72
2023/04/29 02:50:09;;;;;;;13.43;12.37;;;;;;;4.28;83.81;92742.78;5091792;28;20203;-72
2023/04/29 02:52:34;;;;;;;13.47;12.37;;;;;;;4.57;83.64;92790.78;5104376;28;20234;-72
2023/04/29 02:55:00;;;;;;;14.10;12.93;;;;;;;4.79;82.54;92794.16;5102803;28;20184;-72
2023/04/29 02:57:25;;;;;;;14.53;13.10;;;;;;;4.73;82.75;92792.53;5113314;28;20220;-72
2023/04/29 02:59:51;;;;;;;14.13;12.07;;;;;;;4.83;81.85;92800.44;5130078;28;20179;-73
2023/04/29 03:02:16;;;;;;;14.07;12.77;;;;;;;4.69;81.42;92799.22;5121861;28;20230;-72
2023/04/29 03:04:41;;;;;;;12.27;11.27;;;;;;;4.54;81.53;92791.25;5122573;28;20247;-72
2023/04/29 03:07:07;;;;;;;12.67;11.30;;;;;;;4.59;81.57;92804.22;5110520;28;20224;-71
2023/04/29 03:09:34;;;;;;;12.27;11.23;;;;;;;4.57;81.36;92774.47;5112811;28;20212;-72
2023/04/29 03:11:59;;;;;;;11.37;10.77;;;;;;;4.63;80.42;92776.91;5111499;28;20235;-72
2023/04/29 03:14:25;;;;;;;11.10;10.30;;;;;;;4.58;81.19;92797.50;5125618;28;20188;-71
2023/04/29 03:16:51;;;;;;;11.57;10.87;;;;;;;4.61;81.41;92806.59;5118812;28;20216;-72
2023/04/29 03:19:16;;;;;;;12.00;11.17;;;;;;;4.62;80.25;92803.75;5102331;28;20185;-71
2023/04/29 03:21:41;;;;;;;10.43;9.83;;;;;;;4.70;79.23;92805.94;5097837;28;20311;-71
2023/04/29 03:24:07;;;;;;;10.43;9.83;;;;;;;4.70;79.63;92805.19;5094814;28;20203;-71
2023/04/29 03:26:32;;;;;;;11.27;10.53;;;;;;;4.39;81.47;92796.19;5097732;28;20235;-73
2023/04/29 03:28:58;;;;;;;9.87;9.37;;;;;;;4.62;80.84;92805.59;5108366;28;20218;-73
2023/04/29 03:31:25;;;;;;;11.67;10.83;;;;;;;4.61;80.63;92820.31;5109175;28;20231;-72
2023/04/29 03:33:52;;;;;;;10.90;10.10;;;;;;;4.71;80.78;92822.25;5099084;28;20246;-72
2023/04/29 03:36:18;;;;;;;10.20;9.60;;;;;;;4.67;81.37;92827.09;5106438;28;20224;-71
2023/04/29 03:38:43;;;;;;;10.97;10.27;;;;;;;4.48;81.21;92786.25;5090173;28;20193;-72
2023/04/29 03:41:08;;;;;;;10.63;9.93;;;;;;;4.86;80.94;92832.78;5097469;28;20250;-72
2023/04/29 03:43:34;;;;;;;11.87;10.77;;;;;;;4.60;80.94;92816.16;5108634;28;20183;-73
2023/04/29 03:46:00;;;;;;;10.47;9.77;;;;;;;4.80;81.25;92834.53;5109312;28;20311;-73
2023/04/29 03:48:25;;;;;;;11.57;10.67;;;;;;;5.08;81.33;92843.16;5105536;28;20172;-72
2023/04/29 03:50:50;;;;;;;11.23;10.20;;;;;;;4.47;81.61;92772.53;5108717;28;20176;-72
2023/04/29 03:53:16;;;;;;;12.13;11.07;;;;;;;5.07;80.63;92823.50;5096812;28;20205;-71
2023/04/29 03:55:41;;;;;;;12.40;11.43;;;;;;;5.16;79.95;92822.06;5101209;28;20213;-72
2023/04/29 03:58:07;;;;;;;11.57;10.87;;;;;;;5.45;78.97;92831.22;5108072;28;20280;-71
2023/04/29 04:00:32;;;;;;;11.87;11.17;;;;;;;5.58;77.73;92834.22;5105224;28;20271;-71
2023/04/29 04:02:58;;;;;;;11.30;10.30;;;;;;;5.38;77.72;92790.00;5113200;28;20966;-72
2023/04/29 04:05:24;;;;;;;10.23;9.53;;;;;;;5.67;77.74;92830.16;5112221;28;20213;-73
2023/04/29 04:07:52;;;;;;;12.60;10.40;;;;;;;5.55;79.25;92831.34;5111203;28;20227;-73
2023/04/29 04:10:18;;;;;;;11.77;10.73;;;;;;;5.63;80.20;92820.53;5110275;28;20196;-73
2023/04/29 04:12:44;;;;;;;13.97;12.43;;;;;;;6.05;78.66;92837.84;5123738;28;20237;-74
2023/04/29 04:15:10;;;;;;;14.17;11.80;;;;;;;6.27;77.31;92830.78;5118525;28;20211;-74
2023/04/29 04:17:35;;;;;;;14.70;12.67;;;;;;;6.05;78.49;92816.34;5086103;28;20213;-74
2023/04/29 04:20:01;;;;;;;14.97;12.63;;;;;;;6.06;77.61;92838.63;5088706;28;20961;-72
2023/04/29 04:22:26;;;;;;;15.23;13.47;;;;;;;6.35;77.68;92837.34;5087960;28;20235;-72
2023/04/29 04:24:54;;;;;;;15.90;13.23;;;;;;;6.50;77.43;92824.50;5091670;28;20888;-72
2023/04/29 04:27:19;;;;;;;16.63;13.27;;;;;;;6.72;76.71;92807.00;5088828;28;20224;-73
2023/04/29 04:29:45;;;;;;;18.60;12.63;;;;;;;6.85;76.06;92837.69;5092689;28;20312;-73
2023/04/29 04:32:10;;;;;;;16.47;12.70;;;;;;;6.97;74.28;92827.94;5092061;28;20221;-70
2023/04/29 04:34:38;;;;;;;13.07;11.87;;;;;;;7.05;72.41;92837.06;5092892;28;20187;-70
2023/04/29 04:37:03;;;;;;;14.90;11.73;;;;;;;7.14;72.37;92827.75;5092284;28;20668;-76
2023/04/29 04:39:29;;;;;;;13.40;11.97;;;;;;;7.33;71.91;92824.47;5092782;28;20187;-74
2023/04/29 04:41:54;;;;;;;14.67;13.43;;;;;;;7.35;71.25;92826.81;5092415;28;20217;-75
2023/04/29 04:44:20;;;;;;;13.13;11.93;;;;;;;7.51;69.85;92831.81;5082782;28;20286;-74
2023/04/29 04:46:45;;;;;;;14.10;12.73;;;;;;;7.44;72.37;92836.47;5090158;28;20231;-74
2023/04/29 04:49:11;;;;;;;13.70;12.37;;;;;;;6.94;72.16;92825.81;5091370;28;20212;-73
2023/04/29 04:51:36;;;;;;;14.30;13.00;;;;;;;6.86;73.84;92848.88;5091115;28;20331;-72
2023/04/29 04:54:01;;;;;;;13.73;12.33;;;;;;;7.43;71.53;92849.69;5091152;28;20185;-77
2023/04/29 04:56:27;;;;;;;14.50;13.20;;;;;;;7.24;70.95;92848.56;5091047;28;20224;-73
2023/04/29 04:58:52;;;;;;;16.00;13.77;;;;;;;7.95;68.86;92850.41;5091326;28;20215;-74
2023/04/29 05:01:17;;;;;;;14.50;13.00;;;;;;;8.58;66.11;92851.81;5087347;28;20236;-73
2023/04/29 05:03:43;;;;;;;15.50;14.03;;;;;;;8.65;65.72;92832.34;5090986;28;20216;-75
2023/04/29 05:06:08;;;;;;;16.20;14.57;;;;;;;8.95;65.06;92832.28;5080500;28;20229;-70
2023/04/29 05:08:33;;;;;;;15.60;14.00;;;;;;;9.17;64.91;92830.16;5090530;28;20326;-68
2023/04/29 05:10:59;;;;;;;14.20;12.90;;;;;;;9.08;64.13;92823.16;5081060;28;20267;-76
2023/04/29 05:13:24;;;;;;;15.70;13.27;;;;;;;9.06;62.22;92807.00;5087418;28;20193;-78
2023/04/29 05:15:50;;;;;;;14.47;12.93;;;;;;;9.29;61.69;92812.41;5087623;28;20197;-71
2023/04/29 05:18:15;;;;;;;14.13;12.80;;;;;;;9.24;62.68;92816.88;5087182;28;20198;-71
2023/04/29 05:20:41;;;;;;;16.60;12.83;;;;;;;9.29;61.19;92811.66;5087753;28;20203;-70
2023/04/29 05:23:06;;;;;;;13.13;11.93;;;;;;;9.03;60.68;92807.53;5091242;28;20249;-68
2023/04/29 05:25:32;;;;;;;14.80;12.80;;;;;;;9.16;60.91;92814.81;5084716;28;20201;-68
2023/04/29 05:27:57;;;;;;;13.93;13.00;;;;;;;9.11;62.88;92801.78;5083192;28;20246;-69
2023/04/29 05:30:22;;;;;;;14.07;12.97;;;;;;;9.25;62.46;92806.19;5090795;28;20203;-69
2023/04/29 05:32:48;;;;;;;16.17;13.43;;;;;;;9.42;62.82;92811.88;5090236;28;20789;-69
2023/04/29 05:35:16;;;;;;;14.37;13.03;;;;;;;9.29;62.67;92791.56;5090978;28;20248;-69
2023/04/29 05:37:41;;;;;;;15.23;13.83;;;;;;;9.70;62.92;92802.63;5091448;28;20221;-69
2023/04/29 05:40:08;;;;;;;14.47;13.17;;;;;;;9.71;62.40;92807.56;5091072;28;20199;-69
2023/04/29 05:42:34;;;;;;;14.43;13.23;;;;;;;9.76;63.73;92806.75;5098105;28;20193;-73
2023/04/29 05:44:59;;;;;;;14.63;13.43;;;;;;;10.01;64.61;92814.47;5097707;28;20197;-70
2023/04/29 05:47:24;;;;;;;14.57;13.33;;;;;;;10.10;61.80;92810.25;5092066;28;20196;-72
2023/04/29 05:49:50;;;;;;;15.87;14.20;;;;;;;10.24;61.89;92803.38;5077133;28;20201;-71
2023/04/29 05:52:15;;;;;;;16.90;13.00;;;;;;;10.09;60.88;92800.88;5091344;28;20315;-70
2023/04/29 05:54:41;;;;;;;15.90;14.10;;;;;;;10.38;61.90;92809.56;5092375;28;20188;-69
2023/04/29 05:57:06;;;;;;;15.40;14.10;;;;;;;11.69;57.56;92816.22;5085471;28;20244;-69
2023/04/29 05:59:32;;;;;;;20.23;13.37;;;;;;;11.46;57.41;92822.16;5071651;28;20200;-69
2023/04/29 06:01:59;;;;;;;19.77;12.97;;;;;;;12.43;55.14;92831.97;5071864;28;20197;-69
2023/04/29 06:04:25;;;;;;;18.13;13.77;;;;;;;12.66;53.07;92828.47;5071859;28;20226;-68
2023/04/29 06:06:52;;;;;;;14.70;13.07;;;;;;;13.86;49.60;92829.03;5087762;28;20188;-70
2023/04/29 06:09:24;;;;;;;14.33;12.87;;;;;;;15.16;45.39;92821.97;5094645;28;20184;-69
2023/04/29 06:11:50;;;;;;;17.17;13.50;;;;;;;17.40;40.13;92829.69;5079316;28;20223;-71
2023/04/29 06:14:15;;;;;;;14.63;13.10;;;;;;;20.27;34.39;92833.50;5091660;28;20192;-70
2023/04/29 06:16:40;;;;;;;14.43;13.03;;;;;;;17.25;40.23;92824.13;5091660;28;20188;-69
2023/04/29 06:19:06;;;;;;;13.53;12.33;;;;;;;14.21;45.38;92822.28;5091632;28;20189;-69
2023/04/29 06:21:31;;;;;;;14.03;12.43;;;;;;;12.91;50.07;92805.28;5091265;28;20192;-70
2023/04/29 06:23:57;;;;;;;14.60;13.20;;;;;;;13.16;48.73;92803.31;5091636;28;20185;-71
2023/04/29 06:26:23;;;;;;;16.70;12.57;;;;;;;12.86;51.15;92805.38;5091063;28;20189;-72
2023/04/29 06:28:48;;;;;;;13.53;12.20;;;;;;;12.23;51.90;92772.06;5091418;28;20956;-70
2023/04/29 06:31:14;;;;;;;14.53;13.07;;;;;;;12.06;52.94;92808.41;5090403;28;20191;-70
2023/04/29 06:33:40;;;;;;;16.23;11.93;;;;;;;11.25;55.92;92809.31;5090751;28;20189;-70
2023/04/29 06:36:05;;;;;;;13.33;12.13;;;;;;;11.08;56.70;92806.34;5091018;28;20245;-72
2023/04/29 06:38:31;;;;;;;12.50;11.40;;;;;;;10.81;54.73;92821.75;5090989;28;20188;-71
2023/04/29 06:40:59;;;;;;;13.23;11.93;;;;;;;9.69;57.04;92811.50;5091143;28;20190;-70
2023/04/29 06:43:25;;;;;;;11.80;10.70;;;;;;;10.66;55.07;92821.88;5090923;28;20192;-70
2023/04/29 06:45:51;;;;;;;17.97;12.47;;;;;;;10.58;60.77;92825.09;5078527;28;20216;-72
2023/04/29 06:48:16;;;;;;;12.93;11.93;;;;;;;10.86;55.54;92811.25;5090347;28;20202;-70
2023/04/29 06:51:00;;;;;;;11.53;10.73;;;;;;;11.57;54.13;92815.78;5090904;28;20186;-70
2023/04/29 06:53:26;;;;;;;12.60;11.53;;;;;;;11.66;53.42;92807.06;5090694;28;20224;-70
2023/04/29 06:55:51;;;;;;;13.17;12.07;;;;;;;11.76;51.64;92806.16;5090711;28;20195;-69
2023/04/29 06:58:17;;;;;;;12.43;11.33;;;;;;;11.77;51.58;92821.59;5089519;28;20202;-70
2023/04/29 07:00:44;;;;;;;13.63;10.83;;;;;;;11.99;56.38;92819.22;5090477;28;20213;-69
2023/04/29 07:03:10;;;;;;;10.87;10.13;;;;;;;12.52;50.95;92817.16;5090336;28;20240;-75
2023/04/29 07:05:39;;;;;;;11.30;10.60;;;;;;;12.86;49.00;92820.31;5089290;28;20198;-68
2023/04/29 07:08:05;;;;;;;11.90;10.73;;;;;;;12.55;48.75;92809.53;5090183;28;20224;-68
2023/04/29 07:10:30;;;;;;;12.13;11.20;;;;;;;12.66;50.66;92797.84;5091466;28;20186;-72
2023/04/29 07:12:56;;;;;;;12.67;11.70;;;;;;;13.37;46.84;92813.16;5090329;28;20213;-71
2023/04/29 07:15:21;;;;;;;12.27;11.10;;;;;;;13.60;46.64;92808.81;5081941;28;20188;-69
2023/04/29 07:17:47;;;;;;;11.47;10.77;;;;;;;13.67;47.00;92809.97;5091133;28;20198;-69
2023/04/29 07:20:13;;;;;;;11.80;10.93;;;;;;;12.97;47.02;92808.59;5091281;28;20181;-69
2023/04/29 07:22:38;;;;;;;11.83;11.03;;;;;;;12.72;50.38;92790.66;5091844;28;20211;-72
2023/04/29 12:33:43;;;;;;;9.70;9.10;;;;;;;16.15;37.28;92675.50;5103525;27;20593;-74
2023/04/29 12:36:19;;;;;;;9.77;9.17;;;;;;;16.50;37.94;92668.38;5090203;28;20193;-72
2023/04/29 12:38:46;;;;;;;10.37;9.67;;;;;;;16.51;39.09;92670.69;5080318;28;20196;-73
2023/04/29 12:41:16;;;;;;;9.63;9.03;;;;;;;16.17;39.47;92667.28;5084500;28;20268;-75
2023/04/29 12:43:41;;;;;;;9.80;9.03;;;;;;;15.93;39.58;92670.38;5086657;28;20185;-75
2023/04/29 12:46:08;;;;;;;11.07;9.83;;;;;;;16.04;40.75;92664.50;5085909;28;20188;-79
2023/04/29 12:48:37;;;;;;;9.37;8.67;;;;;;;15.87;41.16;92658.44;5089464;28;20212;-74
2023/04/29 12:51:03;;;;;;;9.70;8.97;;;;;;;16.50;41.08;92665.75;5082673;28;20183;-75
2023/04/29 12:53:30;;;;;;;8.40;8.00;;;;;;;17.00;40.19;92664.03;5086041;28;20216;-73
2023/04/29 12:55:55;;;;;;;17.17;8.53;;;;;;;16.96;40.94;92663.13;5082013;28;20223;-71
2023/04/29 12:58:21;;;;;;;8.67;8.10;;;;;;;17.35;39.76;92663.56;5082167;28;20189;-72
2023/04/29 13:00:46;;;;;;;8.93;8.30;;;;;;;17.14;40.00;92659.31;5085180;28;20181;-73
2023/04/29 13:03:12;;;;;;;9.17;8.60;;;;;;;17.26;40.21;92668.13;5087718;28;20230;-71
2023/04/29 13:05:37;;;;;;;50.70;13.43;;;;;;;16.92;43.04;92649.78;5084568;28;20208;-73
2023/04/29 13:08:05;;;;;;;9.80;9.13;;;;;;;16.86;42.82;92664.25;5078855;28;20744;-72
2023/04/29 13:10:32;;;;;;;8.70;8.00;;;;;;;17.44;41.27;92659.06;5086042;28;20197;-71
2023/04/29 13:12:58;;;;;;;67.13;13.13;;;;;;;16.95;45.57;92659.72;5088243;28;20197;-72
2023/04/29 13:15:23;;;;;;;128.83;23.47;;;;;;;16.81;44.20;92655.75;5085076;28;20185;-72
2023/04/29 13:17:50;;;;;;;49.87;16.00;;;;;;;16.79;43.91;92660.53;5084084;28;20186;-73
2023/04/29 13:20:16;;;;;;;51.10;16.17;;;;;;;17.11;43.80;92658.09;5082990;28;20189;-67
2023/04/29 13:22:43;;;;;;;12.63;10.00;;;;;;;16.93;41.92;92659.28;5083029;28;20280;-66
2023/04/29 13:25:09;;;;;;;13.47;10.73;;;;;;;16.27;42.32;92649.28;5082511;28;20202;-66
2023/04/29 13:27:35;;;;;;;16.27;8.63;;;;;;;16.90;44.42;92659.88;5089033;28;20181;-68
2023/04/29 13:30:00;;;;;;;9.40;8.73;;;;;;;16.75;43.20;92649.06;5089339;28;20225;-68
2023/04/29 13:32:26;;;;;;;180.70;37.40;;;;;;;16.73;42.92;92648.63;5097792;28;20248;-68
2023/04/29 13:34:52;;;;;;;97.60;25.37;;;;;;;16.95;44.49;92654.44;5091941;28;20758;-69
2023/04/29 13:37:18;;;;;;;54.80;16.93;;;;;;;16.59;46.50;92648.78;5090486;28;20227;-69
2023/04/29 13:39:44;;;;;;;10.80;9.83;;;;;;;16.25;43.43;92648.81;5091210;28;20187;-68
2023/04/29 13:42:09;;;;;;;22.37;21.17;;;;;;;16.72;41.97;92647.84;5092372;28;20453;-68
2023/04/29 13:44:35;;;;;;;14.53;13.47;;;;;;;15.95;43.68;92629.47;5085192;28;20265;-69
2023/04/29 13:47:01;;;;;;;12.27;11.60;;;;;;;16.74;42.10;92644.88;5088221;28;20193;-68
2023/04/29 13:49:26;;;;;;;10.30;9.40;;;;;;;16.65;42.33;92637.03;5082517;28;20185;-67
2023/04/29 13:51:52;;;;;;;70.40;20.40;;;;;;;16.09;44.39;92639.88;5092754;28;20249;-69
2023/04/29 13:54:19;;;;;;;10.57;9.87;;;;;;;16.26;43.37;92633.81;5088671;28;20191;-68
2023/04/29 13:56:48;;;;;;;48.40;29.60;;;;;;;16.67;42.70;92637.47;5088171;28;20192;-69
2023/04/29 13:59:13;;;;;;;39.58;35.75;;;;;;;16.68;42.56;92631.13;5087324;28;20438;-68
2023/04/29 14:01:38;;;;;;;9.90;9.20;;;;;;;16.65;43.84;92638.88;5091212;28;20231;-69
2023/04/29 14:04:04;;;;;;;12.03;11.20;;;;;;;16.63;42.99;92633.91;5090606;28;20181;-70
2023/04/29 14:06:31;;;;;;;9.83;9.20;;;;;;;16.62;41.94;92626.31;5091219;28;20281;-69
2023/04/29 14:08:56;;;;;;;11.57;10.73;;;;;;;16.72;41.88;92626.75;5088798;28;20184;-69
2023/04/29 14:11:22;;;;;;;9.00;8.40;;;;;;;16.87;42.79;92623.59;5091053;28;20213;-70
2023/04/29 14:13:47;;;;;;;10.13;9.50;;;;;;;16.60;43.03;92623.22;5094885;28;20211;-72
2023/04/29 14:16:12;;;;;;;9.33;8.83;;;;;;;16.73;42.12;92619.63;5093218;28;20195;-71
2023/04/29 14:18:38;;;;;;;12.00;11.00;;;;;;;16.61;41.64;92620.28;5094724;28;20651;-70
2023/04/29 14:21:03;;;;;;;10.87;10.27;;;;;;;16.32;41.82;92612.25;5092481;28;20185;-72
2023/04/29 14:23:29;;;;;;;9.03;8.53;;;;;;;15.97;43.60;92600.19;5090937;28;20180;-71
2023/04/29 14:25:55;;;;;;;10.17;9.23;;;;;;;16.13;43.49;92611.81;5086255;28;20188;-72
2023/04/29 14:28:20;;;;;;;9.37;8.67;;;;;;;16.00;42.49;92599.56;5100005;28;20218;-71
2023/04/29 14:30:45;;;;;;;7.83;7.43;;;;;;;16.13;41.83;92601.28;5094941;28;20185;-70
2023/04/29 14:33:11;;;;;;;9.07;8.47;;;;;;;16.05;41.83;92617.84;5101081;28;20335;-71
2023/04/29 14:35:36;;;;;;;9.03;8.37;;;;;;;15.75;44.70;92603.00;5100973;28;20748;-71
2023/04/29 14:38:01;;;;;;;9.00;8.47;;;;;;;15.97;42.83;92610.72;5098852;28;20212;-71
2023/04/29 14:40:27;;;;;;;9.13;8.57;;;;;;;15.83;42.09;92610.09;5084739;28;20212;-68
2023/04/29 14:42:52;;;;;;;9.13;8.63;;;;;;;15.85;42.37;92614.00;5090916;28;20219;-67
2023/04/29 14:45:18;;;;;;;9.27;8.77;;;;;;;15.84;43.32;92606.41;5085718;28;20197;-67
2023/04/29 14:47:43;;;;;;;9.33;8.83;;;;;;;16.06;42.04;92599.09;5090279;28;20223;-70
2023/04/29 14:50:09;;;;;;;9.03;8.53;;;;;;;16.16;42.17;92592.75;5082625;28;20207;-70
2023/04/29 14:52:35;;;;;;;10.60;9.90;;;;;;;16.18;42.71;92601.13;5086527;28;20214;-71
2023/04/29 14:55:00;;;;;;;9.40;8.83;;;;;;;15.81;43.73;92593.88;5082501;28;20192;-71
2023/04/29 14:57:26;;;;;;;12.97;11.67;;;;;;;16.25;44.12;92590.09;5084409;28;20184;-71
2023/04/29 14:59:51;;;;;;;11.87;10.90;;;;;;;16.48;42.17;92579.09;5089539;28;20196;-71
2023/04/29 15:02:17;;;;;;;10.13;9.50;;;;;;;16.51;42.09;92589.00;5089658;28;20232;-74
2023/04/29 15:04:44;;;;;;;9.30;8.53;;;;;;;16.80;41.55;92594.31;5090790;28;20199;-73
2023/04/29 15:07:13;;;;;;;8.93;8.40;;;;;;;16.66;40.58;92591.09;5089806;28;20185;-74
2023/04/29 15:09:39;;;;;;;10.53;9.60;;;;;;;16.37;41.63;92571.78;5088741;28;20188;-72
2023/04/29 15:12:04;;;;;;;9.87;9.23;;;;;;;16.59;42.36;92579.50;5081308;28;20185;-70
2023/04/29 15:14:30;;;;;;;11.63;10.93;;;;;;;16.55;42.07;92573.31;5089709;28;20187;-70
2023/04/29 15:16:55;;;;;;;15.23;13.83;;;;;;;16.68;40.87;92572.34;5087084;28;20224;-69
2023/04/29 15:19:23;;;;;;;36.40;11.77;;;;;;;16.12;43.76;92557.59;5087733;28;20275;-68
2023/04/29 15:21:49;;;;;;;11.20;10.13;;;;;;;16.09;44.83;92547.69;5086891;28;20212;-70
2023/04/29 15:24:14;;;;;;;18.33;11.03;;;;;;;16.06;46.33;92566.75;5089821;28;20219;-70
2023/04/29 15:26:40;;;;;;;85.97;14.57;;;;;;;15.90;45.43;92568.31;5092909;22;20236;-72
2023/04/29 15:29:05;;;;;;;14.67;9.77;;;;;;;16.20;48.06;92572.59;5069362;28;20209;-68
2023/04/29 15:31:31;;;;;;;10.67;9.67;;;;;;;16.09;46.43;92571.38;5048159;28;20221;-68
2023/04/29 15:33:56;;;;;;;10.37;9.60;;;;;;;16.11;44.84;92565.81;5048187;28;20255;-69
2023/04/29 15:36:31;;;;;;;10.37;9.70;;;;;;;15.89;45.11;92562.25;5030278;28;20283;-69
2023/04/29 15:38:57;;;;;;;10.10;9.40;;;;;;;15.88;44.75;92558.09;5029309;28;20202;-70
2023/04/29 15:41:24;;;;;;;9.73;9.03;;;;;;;15.76;43.82;92565.06;5063400;28;20225;-71
2023/04/29 15:43:50;;;;;;;10.23;9.53;;;;;;;15.70;45.46;92555.78;5068530;28;20197;-68
2023/04/29 15:46:16;;;;;;;10.87;10.17;;;;;;;15.11;44.91;92559.91;5067688;28;20217;-70
2023/04/29 15:48:41;;;;;;;12.63;11.63;;;;;;;15.11;45.78;92556.47;5065491;28;20186;-68
2023/04/29 15:51:08;;;;;;;11.47;10.67;;;;;;;15.11;46.45;92557.25;5067660;28;20255;-71
2023/04/29 15:53:34;;;;;;;13.73;12.33;;;;;;;15.21;45.99;92558.81;5069230;28;20177;-70
2023/04/29 15:56:00;;;;;;;11.73;10.93;;;;;;;14.86;46.57;92551.94;5068416;28;20453;-70
2023/04/29 15:58:26;;;;;;;11.43;10.73;;;;;;;14.99;46.37;92556.31;5069244;28;20186;-71
2023/04/29 16:00:51;;;;;;;11.13;10.43;;;;;;;14.83;46.61;92555.19;5065115;28;20252;-68
2023/04/29 16:03:16;;;;;;;12.37;11.37;;;;;;;14.89;46.39;92559.22;5065548;28;20224;-68
2023/04/29 16:05:42;;;;;;;10.07;9.37;;;;;;;14.85;46.46;92563.53;5068612;28;20244;-69
2023/04/29 16:08:07;;;;;;;11.80;10.70;;;;;;;14.57;46.98;92552.44;5066594;28;20213;-70
2023/04/29 16:10:33;;;;;;;12.90;12.00;;;;;;;14.61;47.55;92556.03;5057682;28;20222;-72
2023/04/29 16:12:58;;;;;;;10.40;9.50;;;;;;;14.42;47.27;92537.88;5067828;28;20247;-71
2023/04/29 16:15:24;;;;;;;11.00;10.10;;;;;;;14.58;47.29;92547.97;5067493;28;20864;-73
2023/04/29 16:17:50;;;;;;;17.37;13.20;;;;;;;14.64;47.19;92557.28;5067718;28;20186;-72
2023/04/29 16:20:16;;;;;;;14.43;11.90;;;;;;;14.59;47.15;92555.56;5066334;28;20234;-73
2023/04/29 16:22:41;;;;;;;18.30;15.03;;;;;;;14.64;47.44;92563.31;5050396;28;20209;-73
2023/04/29 16:25:07;;;;;;;21.63;15.43;;;;;;;14.49;47.79;92548.72;5067651;28;20225;-70
2023/04/29 16:27:32;;;;;;;13.40;12.30;;;;;;;14.43;47.75;92563.06;5048932;28;20221;-69
2023/04/29 16:29:58;;;;;;;13.23;11.93;;;;;;;14.45;48.08;92558.28;5067301;28;21108;-70